Time;durP1;ratioP1;P1;durP2;ratioP2;P2;SDS_P1;SDS_P2;PMS_P1;PMS_P2;Temp;Humidity;BMP_temperature;BMP_pressure;BME280_temperature;BME280_humidity;BME280_pressure;Samples;Min_cycle;Max_cycle;Signal;HPM_P1;HPM_P2
2023/08/04 00:00:29;;;;;;;5.70;4.60;;;;;;;-128.00;-1.00;-1.00;102382;1255;1062773;-76
2023/08/04 00:02:57;;;;;;;5.90;4.60;;;;;;;-128.00;-1.00;-1.00;102349;1256;1004867;-76
2023/08/04 00:05:23;;;;;;;5.50;4.50;;;;;;;-128.00;-1.00;-1.00;104144;1255;1003838;-78
2023/08/04 00:07:50;;;;;;;7.50;4.90;;;;;;;-128.00;-1.00;-1.00;105033;1255;1004494;-78
2023/08/04 00:10:18;;;;;;;6.00;4.90;;;;;;;-128.00;-1.00;-1.00;104288;1257;1003770;-76
2023/08/04 00:12:45;;;;;;;6.40;4.90;;;;;;;-128.00;-1.00;-1.00;103264;1260;1004830;-79
2023/08/04 00:15:12;;;;;;;5.80;4.60;;;;;;;-128.00;-1.00;-1.00;103386;1255;1004442;-80
2023/08/04 00:17:39;;;;;;;5.80;4.00;;;;;;;-128.00;-1.00;-1.00;103104;1261;1004264;-77
2023/08/04 00:20:08;;;;;;;6.60;4.40;;;;;;;-128.00;-1.00;-1.00;101997;1258;1004515;-79
2023/08/04 00:22:35;;;;;;;5.50;4.80;;;;;;;-128.00;-1.00;-1.00;102126;1255;1047044;-75
2023/08/04 00:25:03;;;;;;;4.60;4.20;;;;;;;-128.00;-1.00;-1.00;102040;1259;1004497;-76
2023/08/04 00:27:30;;;;;;;6.80;4.60;;;;;;;-128.00;-1.00;-1.00;102110;1260;1004716;-75
2023/08/04 00:29:57;;;;;;;4.70;4.20;;;;;;;-128.00;-1.00;-1.00;102087;1261;1004223;-75
2023/08/04 00:32:24;;;;;;;6.90;4.20;;;;;;;-128.00;-1.00;-1.00;102007;1255;1004790;-77
2023/08/04 00:34:50;;;;;;;8.90;4.70;;;;;;;-128.00;-1.00;-1.00;103134;1254;1004234;-78
2023/08/04 00:37:17;;;;;;;5.70;4.20;;;;;;;-128.00;-1.00;-1.00;103981;1255;1003487;-77
2023/08/04 00:39:46;;;;;;;4.60;4.20;;;;;;;-128.00;-1.00;-1.00;103876;1256;1004211;-78
2023/08/04 00:42:13;;;;;;;6.40;4.00;;;;;;;-128.00;-1.00;-1.00;102238;1256;1004546;-76
2023/08/04 00:44:40;;;;;;;5.30;4.20;;;;;;;-128.00;-1.00;-1.00;102089;1260;1004039;-77
2023/08/04 00:47:07;;;;;;;5.70;4.50;;;;;;;-128.00;-1.00;-1.00;102045;1260;1004973;-78
2023/08/04 00:49:35;;;;;;;4.80;4.40;;;;;;;-128.00;-1.00;-1.00;102025;1255;1004349;-77
2023/08/04 00:52:03;;;;;;;4.50;4.10;;;;;;;-128.00;-1.00;-1.00;102131;1260;1005419;-79
2023/08/04 00:54:30;;;;;;;7.40;4.30;;;;;;;-128.00;-1.00;-1.00;102049;1261;1062002;-81
2023/08/04 00:56:57;;;;;;;5.50;4.30;;;;;;;-128.00;-1.00;-1.00;102005;1261;1005123;-79
2023/08/04 00:59:25;;;;;;;4.80;4.00;;;;;;;-128.00;-1.00;-1.00;102268;1258;1003734;-83
2023/08/04 01:01:52;;;;;;;6.30;3.90;;;;;;;-128.00;-1.00;-1.00;102249;1255;1004609;-78
2023/08/04 01:04:19;;;;;;;6.00;4.20;;;;;;;-128.00;-1.00;-1.00;102227;1256;1004252;-79
2023/08/04 01:06:59;;;;;;;6.30;4.00;;;;;;;-128.00;-1.00;-1.00;102467;1257;1004212;-77
2023/08/04 01:09:35;;;;;;;4.90;4.40;;;;;;;-128.00;-1.00;-1.00;104342;1256;1047361;-77
2023/08/04 01:15:12;;;;;;;4.80;3.90;;;;;;;21.80;69.94;99307.96;103304;1289;600038;-76
2023/08/04 01:17:39;;;;;;;5.30;4.50;;;;;;;21.78;69.55;99309.11;105057;1271;61501;-79
2023/08/04 01:20:08;;;;;;;5.10;4.20;;;;;;;21.78;69.51;99309.05;105080;1266;60048;-78
2023/08/04 01:22:35;;;;;;;4.40;4.00;;;;;;;21.77;69.20;99313.55;105279;1272;74086;-80
2023/08/04 01:25:03;;;;;;;5.90;4.20;;;;;;;21.77;69.14;99318.30;105480;1266;70657;-76
2023/08/04 01:27:39;;;;;;;5.00;4.30;;;;;;;21.76;69.07;99315.14;105065;1266;72790;-77
2023/08/04 01:30:15;;;;;;;5.50;4.80;;;;;;;21.75;69.04;99307.52;105380;1256;60197;-77
2023/08/04 01:32:42;;;;;;;4.80;4.10;;;;;;;21.78;69.02;99313.39;105638;1257;60151;-75
2023/08/04 01:35:10;;;;;;;4.60;4.20;;;;;;;21.86;68.74;99312.35;106173;1257;72488;-77
2023/08/04 01:37:38;;;;;;;7.70;4.50;;;;;;;21.87;68.47;99316.64;107792;1256;68039;-76
2023/08/04 01:40:06;;;;;;;5.00;4.20;;;;;;;21.87;68.40;99319.88;106404;1258;71306;-75
2023/08/04 01:42:34;;;;;;;5.00;4.50;;;;;;;21.87;68.41;99315.81;105595;1257;60069;-76
2023/08/04 01:45:02;;;;;;;5.50;4.70;;;;;;;21.85;68.52;99316.29;105506;1257;60098;-78
2023/08/04 01:47:30;;;;;;;6.60;4.30;;;;;;;21.82;68.49;99323.05;105511;1256;73253;-76
2023/08/04 01:49:57;;;;;;;5.30;4.70;;;;;;;21.79;68.50;99318.48;105619;1260;68699;-77
2023/08/04 01:52:25;;;;;;;5.10;4.60;;;;;;;21.76;68.80;99312.88;105476;1256;71916;-75
2023/08/04 01:54:53;;;;;;;5.10;4.20;;;;;;;21.73;68.91;99320.73;105753;1253;59698;-75
2023/08/04 01:57:21;;;;;;;5.20;4.20;;;;;;;21.68;69.16;99323.98;105496;1260;59612;-78
2023/08/04 01:59:49;;;;;;;6.00;4.30;;;;;;;-38.21;41.17;59591.73;104260;1253;1002540;-78
2023/08/04 02:02:16;;;;;;;5.10;4.40;;;;;;;-128.00;-1.00;-1.00;102131;1261;1056984;-77
2023/08/04 02:04:44;;;;;;;4.70;4.20;;;;;;;-128.00;-1.00;-1.00;102350;1253;1004958;-79
2023/08/04 02:07:12;;;;;;;8.40;4.30;;;;;;;-128.00;-1.00;-1.00;102684;1253;1004581;-78
2023/08/04 02:09:39;;;;;;;5.20;4.60;;;;;;;-128.00;-1.00;-1.00;104322;1253;1005037;-79
2023/08/04 02:12:09;;;;;;;4.90;4.40;;;;;;;-128.00;-1.00;-1.00;103322;1253;1005075;-81
2023/08/04 02:14:37;;;;;;;5.10;4.60;;;;;;;-128.00;-1.00;-1.00;102332;1259;1056040;-80
2023/08/04 02:17:04;;;;;;;4.80;4.40;;;;;;;-128.00;-1.00;-1.00;102278;1255;1005269;-77
2023/08/04 02:19:32;;;;;;;10.20;5.30;;;;;;;-128.00;-1.00;-1.00;102429;1253;1004935;-77
2023/08/04 02:21:59;;;;;;;4.50;4.10;;;;;;;-128.00;-1.00;-1.00;102146;1260;1003910;-80
2023/08/04 02:24:27;;;;;;;6.30;4.30;;;;;;;-128.00;-1.00;-1.00;102370;1254;1004640;-80
2023/08/04 02:26:54;;;;;;;5.40;4.90;;;;;;;-128.00;-1.00;-1.00;103833;1257;1004458;-75
2023/08/04 02:29:22;;;;;;;6.50;5.20;;;;;;;-128.00;-1.00;-1.00;102530;1252;1004193;-78
2023/08/04 02:31:50;;;;;;;6.00;5.30;;;;;;;-128.00;-1.00;-1.00;102626;1253;1004828;-79
2023/08/04 02:34:18;;;;;;;7.80;5.20;;;;;;;-128.00;-1.00;-1.00;102328;1252;1005028;-77
2023/08/04 02:36:45;;;;;;;5.70;4.70;;;;;;;-128.00;-1.00;-1.00;102512;1255;1003826;-78
2023/08/04 02:39:13;;;;;;;6.10;4.90;;;;;;;-128.00;-1.00;-1.00;103016;1253;1004699;-78
2023/08/04 02:41:41;;;;;;;5.60;4.90;;;;;;;-128.00;-1.00;-1.00;102940;1253;1004817;-77
2023/08/04 02:44:08;;;;;;;5.00;4.40;;;;;;;-128.00;-1.00;-1.00;101956;1253;1004162;-78
2023/08/04 02:46:36;;;;;;;6.50;5.10;;;;;;;-128.00;-1.00;-1.00;102174;1258;1004596;-78
2023/08/04 02:49:03;;;;;;;4.90;4.50;;;;;;;-128.00;-1.00;-1.00;102206;1258;1004722;-80
2023/08/04 02:51:31;;;;;;;8.00;5.10;;;;;;;-128.00;-1.00;-1.00;102348;1256;1004360;-80
2023/08/04 02:53:58;;;;;;;5.50;5.00;;;;;;;-128.00;-1.00;-1.00;102147;1255;1004157;-79
2023/08/04 02:56:26;;;;;;;7.70;5.20;;;;;;;-128.00;-1.00;-1.00;102249;1258;1004404;-76
2023/08/04 02:58:53;;;;;;;5.80;4.80;;;;;;;-128.00;-1.00;-1.00;102535;1260;1004329;-78
2023/08/04 03:01:21;;;;;;;5.20;4.70;;;;;;;-128.00;-1.00;-1.00;102250;1260;1004469;-76
2023/08/04 03:03:49;;;;;;;7.50;5.10;;;;;;;-128.00;-1.00;-1.00;102371;1260;1005238;-80
2023/08/04 03:06:16;;;;;;;10.60;5.70;;;;;;;-128.00;-1.00;-1.00;102521;1253;1004986;-77
2023/08/04 03:08:44;;;;;;;6.20;4.60;;;;;;;-128.00;-1.00;-1.00;103253;1253;1007003;-79
2023/08/04 03:11:12;;;;;;;5.10;4.60;;;;;;;-128.00;-1.00;-1.00;104982;1253;1004126;-81
2023/08/04 03:13:39;;;;;;;8.10;5.00;;;;;;;-128.00;-1.00;-1.00;102468;1253;1004564;-80
2023/08/04 03:16:07;;;;;;;5.30;4.80;;;;;;;-128.00;-1.00;-1.00;102335;1253;1005273;-78
2023/08/04 03:18:34;;;;;;;7.30;4.80;;;;;;;-128.00;-1.00;-1.00;102207;1253;1004846;-77
2023/08/04 03:21:02;;;;;;;5.70;5.10;;;;;;;-128.00;-1.00;-1.00;102067;1260;1004524;-76
2023/08/04 03:23:31;;;;;;;5.70;5.20;;;;;;;-128.00;-1.00;-1.00;102413;1259;1004254;-79
2023/08/04 03:25:58;;;;;;;5.80;5.20;;;;;;;-128.00;-1.00;-1.00;102283;1253;1005353;-78
2023/08/04 03:28:26;;;;;;;5.60;5.00;;;;;;;-128.00;-1.00;-1.00;102395;1253;1007210;-77
2023/08/04 03:30:54;;;;;;;5.80;5.20;;;;;;;-128.00;-1.00;-1.00;102659;1259;1004155;-77
2023/08/04 03:33:21;;;;;;;5.40;4.90;;;;;;;-128.00;-1.00;-1.00;103060;1259;1003818;-78
2023/08/04 03:35:49;;;;;;;8.00;6.00;;;;;;;-128.00;-1.00;-1.00;102498;1253;1003893;-79
2023/08/04 03:38:16;;;;;;;7.10;5.30;;;;;;;-128.00;-1.00;-1.00;102654;1259;1004104;-79
2023/08/04 03:40:44;;;;;;;6.20;4.70;;;;;;;-128.00;-1.00;-1.00;104062;1253;1005529;-78
2023/08/04 03:43:12;;;;;;;6.70;5.40;;;;;;;-128.00;-1.00;-1.00;103932;1258;1004408;-78
2023/08/04 03:45:39;;;;;;;6.80;5.30;;;;;;;-128.00;-1.00;-1.00;102303;1260;1005790;-76
2023/08/04 03:48:07;;;;;;;8.30;5.10;;;;;;;-128.00;-1.00;-1.00;103811;1254;1004646;-76
2023/08/04 03:50:34;;;;;;;6.80;5.40;;;;;;;-128.00;-1.00;-1.00;104113;1254;1004765;-77
2023/08/04 03:53:02;;;;;;;7.10;6.00;;;;;;;-128.00;-1.00;-1.00;102057;1261;1004861;-79
2023/08/04 03:55:29;;;;;;;8.60;5.40;;;;;;;-128.00;-1.00;-1.00;102222;1253;1004582;-79
2023/08/04 03:57:57;;;;;;;6.70;5.30;;;;;;;-128.00;-1.00;-1.00;102146;1253;1005108;-76
2023/08/04 04:00:24;;;;;;;8.80;5.10;;;;;;;-128.00;-1.00;-1.00;102049;1253;1004559;-78
2023/08/04 04:02:52;;;;;;;8.00;5.60;;;;;;;-128.00;-1.00;-1.00;102131;1253;1003824;-77
2023/08/04 04:05:19;;;;;;;7.30;5.20;;;;;;;-128.00;-1.00;-1.00;102280;1257;1004017;-77
2023/08/04 04:07:49;;;;;;;8.40;5.40;;;;;;;-128.00;-1.00;-1.00;102482;1253;1058996;-76
2023/08/04 04:10:17;;;;;;;6.90;5.70;;;;;;;-128.00;-1.00;-1.00;104159;1258;1004555;-79
2023/08/04 04:12:44;;;;;;;6.40;5.60;;;;;;;-128.00;-1.00;-1.00;103882;1253;1004923;-76
2023/08/04 04:15:12;;;;;;;8.60;5.80;;;;;;;-128.00;-1.00;-1.00;102284;1253;1004051;-76
2023/08/04 04:17:39;;;;;;;6.90;6.20;;;;;;;-128.00;-1.00;-1.00;102313;1258;1004317;-78
2023/08/04 04:20:07;;;;;;;7.60;6.10;;;;;;;-128.00;-1.00;-1.00;102321;1254;1004522;-78
2023/08/04 04:22:35;;;;;;;10.10;6.60;;;;;;;-128.00;-1.00;-1.00;102059;1254;1004868;-78
2023/08/04 04:25:02;;;;;;;8.20;6.60;;;;;;;-128.00;-1.00;-1.00;102293;1253;1004245;-79
2023/08/04 04:27:30;;;;;;;6.80;6.00;;;;;;;-128.00;-1.00;-1.00;102401;1253;1004599;-77
2023/08/04 04:29:58;;;;;;;6.90;6.20;;;;;;;-128.00;-1.00;-1.00;102350;1257;1005731;-79
2023/08/04 04:32:25;;;;;;;9.60;6.70;;;;;;;-128.00;-1.00;-1.00;102390;1253;1004731;-77
2023/08/04 04:34:53;;;;;;;12.10;7.60;;;;;;;-128.00;-1.00;-1.00;102280;1253;1004477;-77
2023/08/04 04:37:20;;;;;;;10.70;7.80;;;;;;;-128.00;-1.00;-1.00;102550;1253;1005399;-76
2023/08/04 04:39:48;;;;;;;11.50;8.00;;;;;;;-128.00;-1.00;-1.00;103010;1253;1006088;-78
2023/08/04 04:42:16;;;;;;;12.20;7.80;;;;;;;-128.00;-1.00;-1.00;104428;1254;1004500;-82
2023/08/04 04:44:44;;;;;;;10.70;7.50;;;;;;;-128.00;-1.00;-1.00;103933;1258;1059610;-81
2023/08/04 04:47:12;;;;;;;11.80;8.40;;;;;;;-128.00;-1.00;-1.00;102878;1259;1004404;-79
2023/08/04 04:49:39;;;;;;;13.90;9.10;;;;;;;-128.00;-1.00;-1.00;102949;1253;1004035;-82
2023/08/04 04:52:14;;;;;;;16.40;9.70;;;;;;;-128.00;-1.00;-1.00;102838;1253;1005077;-82
2023/08/04 04:54:42;;;;;;;15.90;9.70;;;;;;;-128.00;-1.00;-1.00;102405;1253;1060019;-83
2023/08/04 04:57:10;;;;;;;14.30;8.70;;;;;;;-128.00;-1.00;-1.00;102815;1259;1006222;-82
2023/08/04 04:59:37;;;;;;;17.00;9.20;;;;;;;-128.00;-1.00;-1.00;102598;1261;1004133;-79
2023/08/04 05:02:05;;;;;;;14.70;9.10;;;;;;;-128.00;-1.00;-1.00;103188;1260;1004150;-79
2023/08/04 05:04:33;;;;;;;15.90;9.20;;;;;;;-128.00;-1.00;-1.00;103851;1258;1004926;-80
2023/08/04 05:07:01;;;;;;;13.80;8.70;;;;;;;-128.00;-1.00;-1.00;104103;1260;1004847;-80
2023/08/04 05:09:28;;;;;;;11.70;7.50;;;;;;;-128.00;-1.00;-1.00;104627;1253;1005974;-81
2023/08/04 05:11:56;;;;;;;15.00;8.50;;;;;;;-128.00;-1.00;-1.00;105325;1253;1004335;-79
2023/08/04 05:14:23;;;;;;;11.80;8.20;;;;;;;-128.00;-1.00;-1.00;105588;1253;1004946;-79
2023/08/04 05:16:51;;;;;;;12.10;8.10;;;;;;;-128.00;-1.00;-1.00;104841;1253;1004990;-79
2023/08/04 05:19:18;;;;;;;11.70;7.80;;;;;;;-128.00;-1.00;-1.00;104056;1256;1004457;-78
2023/08/04 05:21:46;;;;;;;9.30;7.10;;;;;;;-128.00;-1.00;-1.00;103805;1253;1004325;-79
2023/08/04 05:24:14;;;;;;;10.90;7.40;;;;;;;-128.00;-1.00;-1.00;103678;1253;1004628;-81
2023/08/04 05:26:42;;;;;;;9.50;6.30;;;;;;;-128.00;-1.00;-1.00;103927;1253;1005106;-79
2023/08/04 05:29:10;;;;;;;9.80;7.40;;;;;;;-128.00;-1.00;-1.00;104168;1259;1004017;-78
2023/08/04 05:31:37;;;;;;;7.70;6.80;;;;;;;-128.00;-1.00;-1.00;103886;1253;1004619;-82
2023/08/04 05:34:05;;;;;;;6.90;6.00;;;;;;;-128.00;-1.00;-1.00;105168;1253;1004090;-80
2023/08/04 05:36:32;;;;;;;8.50;6.60;;;;;;;-128.00;-1.00;-1.00;103991;1253;1003756;-74
2023/08/04 05:39:00;;;;;;;9.10;6.70;;;;;;;-128.00;-1.00;-1.00;103618;1254;1005178;-73
2023/08/04 05:41:28;;;;;;;9.70;6.20;;;;;;;-128.00;-1.00;-1.00;103198;1253;1003931;-70
2023/08/04 05:43:56;;;;;;;8.90;6.50;;;;;;;-128.00;-1.00;-1.00;103234;1253;1005320;-74
2023/08/04 05:46:24;;;;;;;11.00;6.50;;;;;;;-128.00;-1.00;-1.00;102908;1253;1004068;-74
2023/08/04 05:48:51;;;;;;;10.60;6.90;;;;;;;-128.00;-1.00;-1.00;103176;1252;1004102;-73
2023/08/04 05:51:19;;;;;;;9.40;6.40;;;;;;;-128.00;-1.00;-1.00;102360;1253;1006574;-73
2023/08/04 05:53:47;;;;;;;7.80;6.50;;;;;;;-128.00;-1.00;-1.00;102041;1253;1005293;-73
2023/08/04 05:56:14;;;;;;;9.00;6.00;;;;;;;-128.00;-1.00;-1.00;102094;1251;1004143;-72
2023/08/04 05:58:42;;;;;;;8.60;6.80;;;;;;;-128.00;-1.00;-1.00;102084;1253;1003831;-71
2023/08/04 06:01:09;;;;;;;13.70;6.80;;;;;;;-128.00;-1.00;-1.00;102507;1253;1005101;-74
2023/08/04 06:03:37;;;;;;;10.50;6.50;;;;;;;-128.00;-1.00;-1.00;102121;1253;1005371;-73
2023/08/04 06:06:05;;;;;;;10.10;6.50;;;;;;;-128.00;-1.00;-1.00;101966;1251;1004341;-74
2023/08/04 06:08:32;;;;;;;8.80;6.70;;;;;;;-128.00;-1.00;-1.00;101899;1253;1003830;-72
2023/08/04 06:11:00;;;;;;;7.80;6.60;;;;;;;-128.00;-1.00;-1.00;102367;1256;1006075;-72
2023/08/04 06:13:27;;;;;;;8.30;6.40;;;;;;;-128.00;-1.00;-1.00;102445;1259;1004942;-72
2023/08/04 06:15:55;;;;;;;7.30;6.20;;;;;;;-128.00;-1.00;-1.00;101926;1253;1004075;-73
2023/08/04 06:18:23;;;;;;;7.10;6.40;;;;;;;-128.00;-1.00;-1.00;101639;1259;1004151;-73
2023/08/04 06:20:51;;;;;;;8.00;6.50;;;;;;;-128.00;-1.00;-1.00;101849;1251;1003918;-72
2023/08/04 06:23:19;;;;;;;10.40;6.40;;;;;;;-128.00;-1.00;-1.00;102168;1260;1058555;-73
2023/08/04 06:25:46;;;;;;;9.10;6.90;;;;;;;-128.00;-1.00;-1.00;102201;1253;1004768;-73
2023/08/04 06:28:14;;;;;;;8.30;6.70;;;;;;;-128.00;-1.00;-1.00;101821;1251;1006257;-73
2023/08/04 06:30:42;;;;;;;11.60;7.30;;;;;;;-128.00;-1.00;-1.00;101977;1251;1005793;-73
2023/08/04 06:33:09;;;;;;;10.30;6.10;;;;;;;-128.00;-1.00;-1.00;101763;1261;1003799;-75
2023/08/04 06:35:41;;;;;;;7.50;6.20;;;;;;;-128.00;-1.00;-1.00;102055;1253;1004554;-74
2023/08/04 06:38:08;;;;;;;7.60;5.10;;;;;;;-128.00;-1.00;-1.00;101959;1253;1049981;-74
2023/08/04 06:40:37;;;;;;;6.50;5.90;;;;;;;-128.00;-1.00;-1.00;102156;1258;1004471;-73
2023/08/04 06:43:06;;;;;;;7.90;5.90;;;;;;;-128.00;-1.00;-1.00;102641;1256;1063763;-72
2023/08/04 06:45:33;;;;;;;8.10;6.20;;;;;;;-128.00;-1.00;-1.00;101969;1254;1061382;-73
2023/08/04 06:48:01;;;;;;;7.40;5.80;;;;;;;-128.00;-1.00;-1.00;102067;1251;1003873;-75
2023/08/04 06:50:29;;;;;;;8.40;6.30;;;;;;;-128.00;-1.00;-1.00;101909;1253;1004006;-71
2023/08/04 06:52:57;;;;;;;9.30;5.70;;;;;;;-128.00;-1.00;-1.00;101797;1252;1004354;-73
2023/08/04 06:55:24;;;;;;;6.80;5.90;;;;;;;-128.00;-1.00;-1.00;101937;1251;1003943;-73
2023/08/04 06:57:52;;;;;;;9.90;5.90;;;;;;;-128.00;-1.00;-1.00;101981;1257;1004471;-74
2023/08/04 07:00:20;;;;;;;7.10;5.70;;;;;;;-128.00;-1.00;-1.00;102105;1253;1003688;-75
2023/08/04 07:02:48;;;;;;;10.20;6.60;;;;;;;-128.00;-1.00;-1.00;102170;1256;1004714;-73
2023/08/04 07:05:16;;;;;;;8.70;6.10;;;;;;;-128.00;-1.00;-1.00;102100;1254;1046896;-74
2023/08/04 07:07:47;;;;;;;6.80;5.90;;;;;;;-128.00;-1.00;-1.00;102040;1253;1004179;-71
2023/08/04 07:10:14;;;;;;;8.90;4.90;;;;;;;-128.00;-1.00;-1.00;102068;1257;1056213;-72
2023/08/04 07:12:42;;;;;;;7.10;5.10;;;;;;;-128.00;-1.00;-1.00;102702;1256;1004141;-73
2023/08/04 07:15:10;;;;;;;6.30;5.70;;;;;;;-128.00;-1.00;-1.00;102339;1253;1006389;-74
2023/08/04 07:17:37;;;;;;;7.20;5.90;;;;;;;-128.00;-1.00;-1.00;102191;1259;1004036;-73
2023/08/04 07:20:05;;;;;;;6.00;5.40;;;;;;;-128.00;-1.00;-1.00;102182;1251;1003522;-73
2023/08/04 07:22:33;;;;;;;9.20;6.00;;;;;;;-128.00;-1.00;-1.00;101932;1259;1005292;-73
2023/08/04 07:25:00;;;;;;;8.60;5.90;;;;;;;-128.00;-1.00;-1.00;101770;1251;1005309;-72
2023/08/04 07:27:28;;;;;;;7.20;5.50;;;;;;;-128.00;-1.00;-1.00;102108;1257;1007324;-74
2023/08/04 07:29:55;;;;;;;5.80;5.20;;;;;;;-128.00;-1.00;-1.00;101945;1253;1004672;-71
2023/08/04 07:32:23;;;;;;;9.40;6.10;;;;;;;-128.00;-1.00;-1.00;101993;1253;1004772;-72
2023/08/04 07:34:51;;;;;;;9.50;5.60;;;;;;;-128.00;-1.00;-1.00;102222;1251;1004838;-74
2023/08/04 07:37:18;;;;;;;7.60;6.50;;;;;;;-128.00;-1.00;-1.00;102126;1251;1006600;-72
2023/08/04 07:39:46;;;;;;;7.50;6.10;;;;;;;-128.00;-1.00;-1.00;102226;1254;1003501;-74
2023/08/04 07:42:13;;;;;;;8.30;6.10;;;;;;;-128.00;-1.00;-1.00;102632;1253;1004370;-74
2023/08/04 07:44:41;;;;;;;7.10;5.20;;;;;;;-128.00;-1.00;-1.00;102922;1252;1004311;-71
2023/08/04 07:47:08;;;;;;;9.50;6.00;;;;;;;-128.00;-1.00;-1.00;102144;1251;1005050;-73
2023/08/04 07:49:36;;;;;;;12.80;6.10;;;;;;;-128.00;-1.00;-1.00;102330;1257;1004720;-74
2023/08/04 07:52:04;;;;;;;9.00;6.50;;;;;;;-128.00;-1.00;-1.00;102370;1253;1004365;-73
2023/08/04 07:54:32;;;;;;;12.00;6.50;;;;;;;-128.00;-1.00;-1.00;101665;1251;1004599;-72
2023/08/04 07:57:02;;;;;;;13.30;6.70;;;;;;;-128.00;-1.00;-1.00;101733;1252;1004924;-74
2023/08/04 07:59:30;;;;;;;8.20;6.50;;;;;;;-128.00;-1.00;-1.00;102057;1258;1057061;-74
2023/08/04 08:01:58;;;;;;;9.50;6.20;;;;;;;-128.00;-1.00;-1.00;102049;1258;1004438;-72
2023/08/04 08:04:25;;;;;;;10.40;6.20;;;;;;;-128.00;-1.00;-1.00;101891;1252;1004958;-75
2023/08/04 08:06:53;;;;;;;10.20;5.70;;;;;;;-128.00;-1.00;-1.00;101900;1253;1004846;-71
2023/08/04 08:09:21;;;;;;;8.50;6.40;;;;;;;-128.00;-1.00;-1.00;101721;1257;1005919;-74
2023/08/04 08:11:50;;;;;;;6.40;5.70;;;;;;;-128.00;-1.00;-1.00;102318;1253;1003692;-74
2023/08/04 08:14:18;;;;;;;9.10;5.90;;;;;;;-128.00;-1.00;-1.00;103214;1253;1059195;-75
2023/08/04 08:16:45;;;;;;;5.70;5.20;;;;;;;-128.00;-1.00;-1.00;102264;1257;1005868;-74
2023/08/04 08:19:13;;;;;;;5.90;4.80;;;;;;;-128.00;-1.00;-1.00;102137;1260;1004407;-74
2023/08/04 08:21:42;;;;;;;9.50;5.10;;;;;;;-128.00;-1.00;-1.00;102382;1254;1005467;-74
2023/08/04 08:24:10;;;;;;;5.40;4.90;;;;;;;-128.00;-1.00;-1.00;102073;1259;1057335;-72
2023/08/04 08:26:37;;;;;;;5.40;4.60;;;;;;;-128.00;-1.00;-1.00;102042;1254;1004174;-72
2023/08/04 08:29:06;;;;;;;6.80;4.60;;;;;;;-128.00;-1.00;-1.00;102057;1253;1004329;-73
2023/08/04 08:31:33;;;;;;;5.40;4.30;;;;;;;-128.00;-1.00;-1.00;101968;1259;1004752;-74
2023/08/04 08:34:01;;;;;;;4.60;4.10;;;;;;;-128.00;-1.00;-1.00;102355;1253;1004256;-73
2023/08/04 08:36:29;;;;;;;4.40;4.00;;;;;;;-128.00;-1.00;-1.00;101777;1258;1004837;-75
2023/08/04 08:38:56;;;;;;;5.20;4.60;;;;;;;-128.00;-1.00;-1.00;102274;1255;1004543;-74
2023/08/04 08:41:24;;;;;;;6.90;4.40;;;;;;;-128.00;-1.00;-1.00;102053;1253;1004949;-74
2023/08/04 08:43:51;;;;;;;5.10;4.60;;;;;;;-128.00;-1.00;-1.00;103435;1259;1004000;-77
2023/08/04 08:46:19;;;;;;;7.60;5.00;;;;;;;-128.00;-1.00;-1.00;104093;1253;1004825;-78
2023/08/04 08:48:47;;;;;;;6.00;4.50;;;;;;;-128.00;-1.00;-1.00;102785;1258;1004546;-79
2023/08/04 08:51:18;;;;;;;5.50;4.40;;;;;;;-128.00;-1.00;-1.00;102357;1253;1004487;-80
2023/08/04 08:53:49;;;;;;;6.70;4.90;;;;;;;-128.00;-1.00;-1.00;102478;1253;1047711;-82
2023/08/04 08:56:16;;;;;;;6.40;4.50;;;;;;;-128.00;-1.00;-1.00;102453;1259;1046793;-80
2023/08/04 08:58:44;;;;;;;5.40;4.50;;;;;;;-128.00;-1.00;-1.00;102411;1252;1005318;-82
2023/08/04 09:01:12;;;;;;;6.70;4.30;;;;;;;-128.00;-1.00;-1.00;102469;1253;1005630;-80
2023/08/04 09:03:39;;;;;;;6.40;4.00;;;;;;;-128.00;-1.00;-1.00;102772;1259;1004867;-81
2023/08/04 09:06:07;;;;;;;4.90;4.50;;;;;;;-128.00;-1.00;-1.00;102889;1253;1004539;-78
2023/08/04 09:08:35;;;;;;;4.30;3.90;;;;;;;-128.00;-1.00;-1.00;103083;1257;1004522;-81
2023/08/04 09:11:02;;;;;;;5.00;4.30;;;;;;;-128.00;-1.00;-1.00;102453;1254;1004677;-81
2023/08/04 09:13:30;;;;;;;5.90;4.00;;;;;;;-128.00;-1.00;-1.00;103923;1251;1006006;-83
2023/08/04 09:15:58;;;;;;;4.50;4.10;;;;;;;-128.00;-1.00;-1.00;104698;1253;1003978;-81
2023/08/04 09:18:31;;;;;;;4.30;3.70;;;;;;;-128.00;-1.00;-1.00;103518;1253;1047110;-80
2023/08/04 09:21:10;;;;;;;5.00;4.30;;;;;;;-128.00;-1.00;-1.00;102326;1258;1051441;-80
2023/08/04 09:23:42;;;;;;;4.00;3.60;;;;;;;-128.00;-1.00;-1.00;102488;1257;1062609;-81
2023/08/04 09:26:10;;;;;;;4.20;3.90;;;;;;;-128.00;-1.00;-1.00;102257;1251;1058158;-80
2023/08/04 09:28:37;;;;;;;5.00;4.10;;;;;;;-128.00;-1.00;-1.00;102511;1251;1004054;-78
2023/08/04 09:31:09;;;;;;;5.10;3.60;;;;;;;-128.00;-1.00;-1.00;102241;1259;1004609;-79
2023/08/04 09:33:41;;;;;;;4.90;3.50;;;;;;;-128.00;-1.00;-1.00;102389;1260;1051535;-80
2023/08/04 09:36:16;;;;;;;4.80;3.20;;;;;;;-128.00;-1.00;-1.00;102486;1256;1060567;-80
2023/08/04 09:38:44;;;;;;;3.80;3.00;;;;;;;-128.00;-1.00;-1.00;102429;1259;1058881;-77
2023/08/04 09:41:13;;;;;;;3.30;3.00;;;;;;;-128.00;-1.00;-1.00;101953;1257;1004148;-79
2023/08/04 09:43:48;;;;;;;4.10;3.50;;;;;;;-128.00;-1.00;-1.00;103932;1253;1047354;-80
2023/08/04 09:46:19;;;;;;;7.70;3.80;;;;;;;-128.00;-1.00;-1.00;104921;1253;1046570;-79
2023/08/04 09:48:48;;;;;;;3.90;3.50;;;;;;;-128.00;-1.00;-1.00;105484;1251;1060153;-79
2023/08/04 09:51:19;;;;;;;3.70;3.40;;;;;;;-128.00;-1.00;-1.00;104692;1251;1003807;-81
2023/08/04 09:53:51;;;;;;;3.80;3.40;;;;;;;-128.00;-1.00;-1.00;102735;1260;1060051;-80
2023/08/04 09:56:19;;;;;;;4.00;3.70;;;;;;;-128.00;-1.00;-1.00;102458;1253;1047342;-82
2023/08/04 09:58:48;;;;;;;3.70;3.30;;;;;;;-128.00;-1.00;-1.00;102618;1253;1004694;-80
2023/08/04 10:01:18;;;;;;;3.70;3.20;;;;;;;-128.00;-1.00;-1.00;102565;1253;1062256;-85
2023/08/04 10:03:54;;;;;;;4.30;3.10;;;;;;;-128.00;-1.00;-1.00;102308;1254;1005250;-79
2023/08/04 10:06:22;;;;;;;3.50;3.00;;;;;;;-128.00;-1.00;-1.00;102417;1258;1062062;-80
2023/08/04 10:08:53;;;;;;;3.50;3.00;;;;;;;-128.00;-1.00;-1.00;102653;1251;1004461;-81
2023/08/04 10:11:21;;;;;;;3.40;3.10;;;;;;;-128.00;-1.00;-1.00;103376;1257;1046717;-78
2023/08/04 10:13:54;;;;;;;4.20;3.20;;;;;;;-128.00;-1.00;-1.00;103860;1251;1004349;-78
2023/08/04 10:16:24;;;;;;;4.70;3.70;;;;;;;-128.00;-1.00;-1.00;103461;1253;1059672;-77
2023/08/04 10:18:57;;;;;;;3.50;3.20;;;;;;;-128.00;-1.00;-1.00;103338;1253;1058834;-79
2023/08/04 10:21:39;;;;;;;3.40;3.20;;;;;;;-128.00;-1.00;-1.00;102368;1253;1046919;-78
2023/08/04 10:24:07;;;;;;;3.30;3.00;;;;;;;-128.00;-1.00;-1.00;101923;1255;1048072;-79
2023/08/04 10:26:44;;;;;;;3.30;3.00;;;;;;;-128.00;-1.00;-1.00;102134;1259;1003992;-80
2023/08/04 10:29:12;;;;;;;3.80;3.10;;;;;;;-128.00;-1.00;-1.00;101963;1253;1060317;-82
2023/08/04 10:31:51;;;;;;;4.70;3.30;;;;;;;-128.00;-1.00;-1.00;102423;1252;1005456;-82
2023/08/04 10:34:31;;;;;;;4.10;3.20;;;;;;;-128.00;-1.00;-1.00;102456;1253;1049295;-82
2023/08/04 10:37:09;;;;;;;3.70;3.30;;;;;;;-128.00;-1.00;-1.00;102818;1257;1048857;-80
2023/08/04 10:39:41;;;;;;;6.30;3.30;;;;;;;-128.00;-1.00;-1.00;103883;1255;1061327;-77
2023/08/04 10:42:16;;;;;;;5.10;3.40;;;;;;;-128.00;-1.00;-1.00;102156;1252;1059400;-78
2023/08/04 10:45:06;;;;;;;4.20;3.50;;;;;;;-128.00;-1.00;-1.00;103993;1253;1058676;-80
2023/08/04 10:47:48;;;;;;;3.60;3.30;;;;;;;-128.00;-1.00;-1.00;104189;1251;1049387;-78
2023/08/04 10:50:35;;;;;;;;;;;;;;;-128.00;-1.00;-1.00;103962;1258;1047635;-79
2023/08/04 10:53:03;;;;;;;4.00;3.40;;;;;;;-128.00;-1.00;-1.00;103059;1253;1005509;-79
2023/08/04 10:55:33;;;;;;;4.00;3.20;;;;;;;-128.00;-1.00;-1.00;103122;1257;1004142;-78
2023/08/04 10:58:02;;;;;;;3.80;3.50;;;;;;;-128.00;-1.00;-1.00;102872;1251;1059572;-81
2023/08/04 11:00:29;;;;;;;3.80;3.50;;;;;;;-128.00;-1.00;-1.00;102769;1253;1047587;-81
2023/08/04 11:02:57;;;;;;;4.60;3.50;;;;;;;-128.00;-1.00;-1.00;102930;1253;1005054;-78
2023/08/04 11:05:25;;;;;;;3.60;3.30;;;;;;;-128.00;-1.00;-1.00;103175;1253;1004522;-77
2023/08/04 11:07:53;;;;;;;6.80;6.20;;;;;;;-128.00;-1.00;-1.00;105004;1253;1004463;-80
2023/08/04 11:10:21;;;;;;;4.50;4.10;;;;;;;-128.00;-1.00;-1.00;105100;1253;1003662;-78
2023/08/04 11:12:55;;;;;;;3.60;3.30;;;;;;;-128.00;-1.00;-1.00;105223;1253;1047268;-78
2023/08/04 11:15:23;;;;;;;6.40;3.90;;;;;;;-128.00;-1.00;-1.00;105358;1253;1004594;-80
2023/08/04 11:17:50;;;;;;;6.60;4.00;;;;;;;-128.00;-1.00;-1.00;104951;1253;1004835;-79
2023/08/04 11:20:19;;;;;;;4.50;4.10;;;;;;;-128.00;-1.00;-1.00;103041;1258;1006734;-79
2023/08/04 11:23:00;;;;;;;4.20;3.90;;;;;;;-128.00;-1.00;-1.00;102653;1257;1058522;-77
2023/08/04 11:25:32;;;;;;;4.90;4.10;;;;;;;-128.00;-1.00;-1.00;103161;1256;1046542;-82